sensor_id;sensor_type;location;lat;lon;timestamp;pressure;altitude;pressure_sealevel;temperature;humidity
60214;BME280;46080;46.904;19.688;2022-08-01T00:01:14;99952.44;;;18.95;54.92
60214;BME280;46080;46.904;19.688;2022-08-01T00:03:40;99951.72;;;18.88;54.46
60214;BME280;46080;46.904;19.688;2022-08-01T00:06:06;99948.84;;;18.83;54.72
60214;BME280;46080;46.904;19.688;2022-08-01T00:08:31;99955.28;;;18.81;55.21
60214;BME280;46080;46.904;19.688;2022-08-01T00:10:57;99957.88;;;18.76;55.22
60214;BME280;46080;46.904;19.688;2022-08-01T00:13:23;99960.56;;;18.76;55.45
60214;BME280;46080;46.904;19.688;2022-08-01T00:15:49;99950.22;;;18.73;55.15
60214;BME280;46080;46.904;19.688;2022-08-01T00:18:15;99951.25;;;18.72;55.62
60214;BME280;46080;46.904;19.688;2022-08-01T00:20:40;99952.16;;;18.66;55.80
60214;BME280;46080;46.904;19.688;2022-08-01T00:23:06;99942.88;;;18.62;55.84
60214;BME280;46080;46.904;19.688;2022-08-01T00:25:32;99939.00;;;18.58;56.05
60214;BME280;46080;46.904;19.688;2022-08-01T00:27:57;99930.94;;;18.51;55.71
60214;BME280;46080;46.904;19.688;2022-08-01T00:30:23;99938.09;;;18.45;56.09
60214;BME280;46080;46.904;19.688;2022-08-01T00:32:49;99941.47;;;18.41;56.65
60214;BME280;46080;46.904;19.688;2022-08-01T00:35:14;99933.63;;;18.39;56.46
60214;BME280;46080;46.904;19.688;2022-08-01T00:37:40;99938.88;;;18.34;56.64
60214;BME280;46080;46.904;19.688;2022-08-01T00:40:06;99944.03;;;18.36;57.07
60214;BME280;46080;46.904;19.688;2022-08-01T00:42:32;99944.63;;;18.38;56.88
60214;BME280;46080;46.904;19.688;2022-08-01T00:44:58;99935.63;;;18.44;56.97
60214;BME280;46080;46.904;19.688;2022-08-01T00:47:24;99933.16;;;18.42;56.35
60214;BME280;46080;46.904;19.688;2022-08-01T00:49:50;99932.56;;;18.40;56.54
60214;BME280;46080;46.904;19.688;2022-08-01T00:52:15;99926.72;;;18.43;56.34
60214;BME280;46080;46.904;19.688;2022-08-01T00:54:42;99919.22;;;18.45;56.38
60214;BME280;46080;46.904;19.688;2022-08-01T00:57:08;99918.38;;;18.45;56.41
60214;BME280;46080;46.904;19.688;2022-08-01T00:59:34;99923.41;;;18.41;56.94
60214;BME280;46080;46.904;19.688;2022-08-01T01:02:00;99924.94;;;18.37;56.74
60214;BME280;46080;46.904;19.688;2022-08-01T01:04:25;99916.44;;;18.34;56.89
60214;BME280;46080;46.904;19.688;2022-08-01T01:07:04;99915.03;;;18.31;56.98
60214;BME280;46080;46.904;19.688;2022-08-01T01:09:43;99915.47;;;18.28;57.25
60214;BME280;46080;46.904;19.688;2022-08-01T01:17:39;99913.81;;;18.27;57.38
60214;BME280;46080;46.904;19.688;2022-08-01T01:20:08;99918.88;;;18.23;57.48
60214;BME280;46080;46.904;19.688;2022-08-01T01:28:35;99906.72;;;18.14;57.47
60214;BME280;46080;46.904;19.688;2022-08-01T01:31:08;99906.09;;;18.12;57.52
60214;BME280;46080;46.904;19.688;2022-08-01T01:33:37;99898.09;;;18.05;57.68
60214;BME280;46080;46.904;19.688;2022-08-01T01:36:08;99902.06;;;18.03;57.96
60214;BME280;46080;46.904;19.688;2022-08-01T01:38:39;99901.91;;;17.98;57.66
60214;BME280;46080;46.904;19.688;2022-08-01T01:41:11;99892.38;;;17.95;58.13
60214;BME280;46080;46.904;19.688;2022-08-01T01:43:37;99897.78;;;17.95;58.31
60214;BME280;46080;46.904;19.688;2022-08-01T01:46:05;99899.88;;;17.93;58.50
60214;BME280;46080;46.904;19.688;2022-08-01T01:48:33;99898.84;;;17.94;58.54
60214;BME280;46080;46.904;19.688;2022-08-01T01:51:01;99886.63;;;17.91;58.79
60214;BME280;46080;46.904;19.688;2022-08-01T01:53:28;99885.03;;;17.84;58.86
60214;BME280;46080;46.904;19.688;2022-08-01T01:55:57;99884.66;;;17.80;58.98
60214;BME280;46080;46.904;19.688;2022-08-01T01:58:24;99879.03;;;17.82;59.38
60214;BME280;46080;46.904;19.688;2022-08-01T02:00:52;99885.69;;;17.79;59.34
60214;BME280;46080;46.904;19.688;2022-08-01T02:03:21;99879.72;;;17.77;59.31
60214;BME280;46080;46.904;19.688;2022-08-01T02:05:48;99884.03;;;17.78;59.47
60214;BME280;46080;46.904;19.688;2022-08-01T02:08:16;99884.25;;;17.77;59.95
60214;BME280;46080;46.904;19.688;2022-08-01T02:10:44;99890.53;;;17.70;60.16
60214;BME280;46080;46.904;19.688;2022-08-01T02:13:31;99898.09;;;17.62;60.04
60214;BME280;46080;46.904;19.688;2022-08-01T02:15:58;99893.97;;;17.59;60.21
60214;BME280;46080;46.904;19.688;2022-08-01T02:18:24;99893.81;;;17.54;60.58
60214;BME280;46080;46.904;19.688;2022-08-01T02:20:52;99899.88;;;17.49;60.54
60214;BME280;46080;46.904;19.688;2022-08-01T02:23:20;99896.78;;;17.46;60.65
60214;BME280;46080;46.904;19.688;2022-08-01T02:25:52;99894.97;;;17.39;61.32
60214;BME280;46080;46.904;19.688;2022-08-01T02:30:47;99894.03;;;17.27;61.21
60214;BME280;46080;46.904;19.688;2022-08-01T02:33:23;99890.59;;;17.20;61.74
60214;BME280;46080;46.904;19.688;2022-08-01T02:35:54;99899.75;;;17.12;61.93
60214;BME280;46080;46.904;19.688;2022-08-01T02:38:24;99906.63;;;17.08;61.76
60214;BME280;46080;46.904;19.688;2022-08-01T02:40:54;99898.31;;;17.10;61.87
60214;BME280;46080;46.904;19.688;2022-08-01T02:43:25;99895.19;;;17.13;61.57
60214;BME280;46080;46.904;19.688;2022-08-01T02:45:54;99902.81;;;17.16;61.72
60214;BME280;46080;46.904;19.688;2022-08-01T02:48:22;99888.91;;;17.19;61.26
60214;BME280;46080;46.904;19.688;2022-08-01T02:50:53;99892.94;;;17.10;61.68
60214;BME280;46080;46.904;19.688;2022-08-01T02:53:22;99887.38;;;17.05;61.84
60214;BME280;46080;46.904;19.688;2022-08-01T02:55:49;99884.13;;;16.96;61.99
60214;BME280;46080;46.904;19.688;2022-08-01T02:58:18;99886.28;;;16.87;62.22
60214;BME280;46080;46.904;19.688;2022-08-01T03:00:45;99877.75;;;16.83;62.63
60214;BME280;46080;46.904;19.688;2022-08-01T03:03:13;99881.97;;;16.73;62.85
60214;BME280;46080;46.904;19.688;2022-08-01T03:05:39;99886.16;;;16.69;63.02
60214;BME280;46080;46.904;19.688;2022-08-01T03:08:08;99880.72;;;16.75;63.87
60214;BME280;46080;46.904;19.688;2022-08-01T03:10:40;99890.66;;;16.75;63.20
60214;BME280;46080;46.904;19.688;2022-08-01T03:13:08;99894.59;;;16.72;63.46
60214;BME280;46080;46.904;19.688;2022-08-01T03:15:37;99890.47;;;16.70;63.65
60214;BME280;46080;46.904;19.688;2022-08-01T03:18:05;99891.09;;;16.72;63.48
60214;BME280;46080;46.904;19.688;2022-08-01T03:20:33;99898.19;;;16.59;64.01
60214;BME280;46080;46.904;19.688;2022-08-01T03:23:01;99897.56;;;16.57;64.46
60214;BME280;46080;46.904;19.688;2022-08-01T03:25:30;99899.66;;;16.55;64.36
60214;BME280;46080;46.904;19.688;2022-08-01T03:27:59;99902.94;;;16.57;64.25
60214;BME280;46080;46.904;19.688;2022-08-01T03:30:27;99899.44;;;16.57;64.61
60214;BME280;46080;46.904;19.688;2022-08-01T03:32:53;99893.47;;;16.55;64.52
60214;BME280;46080;46.904;19.688;2022-08-01T03:35:21;99886.41;;;16.54;64.99
60214;BME280;46080;46.904;19.688;2022-08-01T03:37:52;99892.63;;;16.54;64.71
60214;BME280;46080;46.904;19.688;2022-08-01T03:40:38;99887.03;;;16.56;64.92
60214;BME280;46080;46.904;19.688;2022-08-01T03:43:11;99893.41;;;16.61;65.13
60214;BME280;46080;46.904;19.688;2022-08-01T03:45:41;99895.19;;;16.74;64.50
60214;BME280;46080;46.904;19.688;2022-08-01T03:48:17;99901.34;;;16.88;64.00
60214;BME280;46080;46.904;19.688;2022-08-01T03:50:51;99889.41;;;17.09;63.76
60214;BME280;46080;46.904;19.688;2022-08-01T03:53:24;99901.13;;;17.22;63.09
60214;BME280;46080;46.904;19.688;2022-08-01T03:55:52;99907.84;;;17.81;61.93
60214;BME280;46080;46.904;19.688;2022-08-01T03:58:19;99907.34;;;18.46;59.69
60214;BME280;46080;46.904;19.688;2022-08-01T04:00:45;99903.81;;;18.95;58.48
60214;BME280;46080;46.904;19.688;2022-08-01T04:03:12;99907.81;;;19.82;56.31
60214;BME280;46080;46.904;19.688;2022-08-01T04:05:41;99902.22;;;20.65;54.16
60214;BME280;46080;46.904;19.688;2022-08-01T04:08:07;99902.41;;;21.55;51.77
60214;BME280;46080;46.904;19.688;2022-08-01T04:10:33;99911.63;;;22.10;48.76
60214;BME280;46080;46.904;19.688;2022-08-01T04:12:59;99905.41;;;22.81;47.91
60214;BME280;46080;46.904;19.688;2022-08-01T04:15:25;99907.53;;;23.33;45.65
60214;BME280;46080;46.904;19.688;2022-08-01T04:17:51;99903.38;;;24.06;44.84
60214;BME280;46080;46.904;19.688;2022-08-01T04:20:16;99898.63;;;24.49;42.97
60214;BME280;46080;46.904;19.688;2022-08-01T04:22:42;99909.41;;;24.86;42.49
60214;BME280;46080;46.904;19.688;2022-08-01T04:25:32;99912.94;;;25.13;40.86
60214;BME280;46080;46.904;19.688;2022-08-01T04:28:00;99910.50;;;25.21;39.84
60214;BME280;46080;46.904;19.688;2022-08-01T04:30:31;99912.13;;;25.28;40.17
60214;BME280;46080;46.904;19.688;2022-08-01T04:33:01;99911.03;;;25.23;40.41
60214;BME280;46080;46.904;19.688;2022-08-01T04:35:29;99919.75;;;25.20;39.97
60214;BME280;46080;46.904;19.688;2022-08-01T04:37:55;99910.78;;;24.94;40.53
60214;BME280;46080;46.904;19.688;2022-08-01T04:40:22;99914.31;;;24.95;40.67
60214;BME280;46080;46.904;19.688;2022-08-01T04:42:49;99915.94;;;24.80;40.58
60214;BME280;46080;46.904;19.688;2022-08-01T04:45:15;99912.25;;;24.39;41.13
60214;BME280;46080;46.904;19.688;2022-08-01T04:47:42;99910.22;;;24.13;41.67
60214;BME280;46080;46.904;19.688;2022-08-01T04:50:09;99920.56;;;24.11;42.10
60214;BME280;46080;46.904;19.688;2022-08-01T04:52:37;99919.19;;;24.09;42.48
60214;BME280;46080;46.904;19.688;2022-08-01T04:55:04;99926.16;;;23.89;42.95
60214;BME280;46080;46.904;19.688;2022-08-01T04:57:43;99925.41;;;23.99;42.57
60214;BME280;46080;46.904;19.688;2022-08-01T05:00:10;99923.09;;;23.80;42.92
60214;BME280;46080;46.904;19.688;2022-08-01T05:02:37;99931.50;;;23.74;42.89
60214;BME280;46080;46.904;19.688;2022-08-01T05:05:03;99927.31;;;24.04;42.45
60214;BME280;46080;46.904;19.688;2022-08-01T05:07:32;99928.59;;;24.44;41.55
60214;BME280;46080;46.904;19.688;2022-08-01T05:09:58;99929.00;;;24.78;41.01
60214;BME280;46080;46.904;19.688;2022-08-01T05:12:24;99922.22;;;25.06;40.12
60214;BME280;46080;46.904;19.688;2022-08-01T05:14:49;99931.81;;;25.30;39.99
60214;BME280;46080;46.904;19.688;2022-08-01T05:17:16;99928.00;;;25.31;39.63
60214;BME280;46080;46.904;19.688;2022-08-01T05:19:42;99926.34;;;25.66;39.66
60214;BME280;46080;46.904;19.688;2022-08-01T05:22:09;99919.25;;;25.59;39.04
60214;BME280;46080;46.904;19.688;2022-08-01T05:24:36;99923.59;;;25.71;38.79
60214;BME280;46080;46.904;19.688;2022-08-01T05:27:02;99920.00;;;25.91;38.77
60214;BME280;46080;46.904;19.688;2022-08-01T05:29:28;99925.47;;;26.01;38.34
60214;BME280;46080;46.904;19.688;2022-08-01T05:31:54;99926.50;;;26.26;38.25
60214;BME280;46080;46.904;19.688;2022-08-01T05:34:20;99920.88;;;26.52;37.55
60214;BME280;46080;46.904;19.688;2022-08-01T05:36:46;99923.50;;;26.77;37.32
60214;BME280;46080;46.904;19.688;2022-08-01T05:39:13;99926.38;;;26.96;36.99
60214;BME280;46080;46.904;19.688;2022-08-01T05:41:39;99931.13;;;27.25;36.37
60214;BME280;46080;46.904;19.688;2022-08-01T05:44:06;99926.94;;;27.67;36.09
60214;BME280;46080;46.904;19.688;2022-08-01T05:46:32;99934.28;;;27.72;36.03
60214;BME280;46080;46.904;19.688;2022-08-01T05:48:59;99931.91;;;27.89;34.95
60214;BME280;46080;46.904;19.688;2022-08-01T05:51:26;99936.56;;;27.89;35.64
60214;BME280;46080;46.904;19.688;2022-08-01T05:53:52;99929.78;;;28.11;35.24
60214;BME280;46080;46.904;19.688;2022-08-01T05:56:19;99930.00;;;28.38;34.19
60214;BME280;46080;46.904;19.688;2022-08-01T05:58:44;99933.16;;;28.26;34.82
60214;BME280;46080;46.904;19.688;2022-08-01T06:01:10;99934.75;;;28.52;34.41
60214;BME280;46080;46.904;19.688;2022-08-01T06:03:36;99931.66;;;28.96;33.89
60214;BME280;46080;46.904;19.688;2022-08-01T06:06:03;99934.00;;;28.89;33.55
60214;BME280;46080;46.904;19.688;2022-08-01T06:08:29;99943.25;;;29.31;33.86
60214;BME280;46080;46.904;19.688;2022-08-01T06:10:55;99940.41;;;29.18;32.59
60214;BME280;46080;46.904;19.688;2022-08-01T06:13:21;99948.78;;;29.45;32.92
60214;BME280;46080;46.904;19.688;2022-08-01T06:15:48;99936.09;;;29.77;33.27
60214;BME280;46080;46.904;19.688;2022-08-01T06:18:14;99938.44;;;29.70;32.56
60214;BME280;46080;46.904;19.688;2022-08-01T06:20:39;99930.09;;;29.61;32.47
60214;BME280;46080;46.904;19.688;2022-08-01T06:23:05;99936.63;;;29.65;32.42
60214;BME280;46080;46.904;19.688;2022-08-01T06:25:31;99946.34;;;29.91;32.17
60214;BME280;46080;46.904;19.688;2022-08-01T06:27:57;99938.50;;;29.98;32.33
60214;BME280;46080;46.904;19.688;2022-08-01T06:30:23;99938.09;;;29.91;31.69
60214;BME280;46080;46.904;19.688;2022-08-01T06:32:48;99937.84;;;29.73;32.17
60214;BME280;46080;46.904;19.688;2022-08-01T06:35:14;99949.09;;;29.91;32.73
60214;BME280;46080;46.904;19.688;2022-08-01T06:37:41;99941.75;;;30.28;31.79
60214;BME280;46080;46.904;19.688;2022-08-01T06:40:09;99935.75;;;30.90;31.34
60214;BME280;46080;46.904;19.688;2022-08-01T06:42:36;99934.09;;;31.03;31.00
60214;BME280;46080;46.904;19.688;2022-08-01T06:45:06;99935.47;;;31.37;30.04
60214;BME280;46080;46.904;19.688;2022-08-01T06:47:32;99940.25;;;31.45;29.98
60214;BME280;46080;46.904;19.688;2022-08-01T06:49:58;99942.84;;;31.50;29.98
60214;BME280;46080;46.904;19.688;2022-08-01T06:52:24;99930.00;;;31.68;29.34
60214;BME280;46080;46.904;19.688;2022-08-01T06:54:50;99936.72;;;31.85;29.65
60214;BME280;46080;46.904;19.688;2022-08-01T06:57:16;99935.47;;;31.91;29.05
60214;BME280;46080;46.904;19.688;2022-08-01T06:59:42;99941.03;;;31.99;29.11
60214;BME280;46080;46.904;19.688;2022-08-01T07:02:07;99939.06;;;32.00;29.06
60214;BME280;46080;46.904;19.688;2022-08-01T07:04:33;99941.28;;;31.89;28.95
60214;BME280;46080;46.904;19.688;2022-08-01T07:06:59;99939.38;;;31.98;28.30
60214;BME280;46080;46.904;19.688;2022-08-01T07:09:26;99938.81;;;32.10;28.82
60214;BME280;46080;46.904;19.688;2022-08-01T07:11:52;99936.38;;;32.17;28.49
60214;BME280;46080;46.904;19.688;2022-08-01T07:14:20;99944.44;;;32.54;28.27
60214;BME280;46080;46.904;19.688;2022-08-01T07:16:45;99933.13;;;32.64;27.65
60214;BME280;46080;46.904;19.688;2022-08-01T07:19:11;99925.75;;;32.42;27.35
60214;BME280;46080;46.904;19.688;2022-08-01T07:21:40;99921.03;;;32.51;27.47
60214;BME280;46080;46.904;19.688;2022-08-01T07:24:12;99913.72;;;32.29;27.16
60214;BME280;46080;46.904;19.688;2022-08-01T07:26:40;99920.81;;;32.13;27.41
60214;BME280;46080;46.904;19.688;2022-08-01T07:29:06;99909.50;;;32.41;27.43
60214;BME280;46080;46.904;19.688;2022-08-01T07:31:32;99918.53;;;32.81;27.03
60214;BME280;46080;46.904;19.688;2022-08-01T07:33:57;99917.53;;;33.21;26.69
60214;BME280;46080;46.904;19.688;2022-08-01T07:36:23;99913.59;;;33.31;26.17
60214;BME280;46080;46.904;19.688;2022-08-01T07:38:49;99920.31;;;32.86;26.09
60214;BME280;46080;46.904;19.688;2022-08-01T07:41:15;99918.19;;;33.27;25.87
60214;BME280;46080;46.904;19.688;2022-08-01T07:43:40;99914.38;;;33.40;25.20
60214;BME280;46080;46.904;19.688;2022-08-01T07:46:06;99917.47;;;33.47;24.61
60214;BME280;46080;46.904;19.688;2022-08-01T07:48:32;99914.31;;;33.66;24.31
60214;BME280;46080;46.904;19.688;2022-08-01T07:50:58;99912.78;;;33.95;24.92
60214;BME280;46080;46.904;19.688;2022-08-01T07:53:24;99911.66;;;34.17;24.24
60214;BME280;46080;46.904;19.688;2022-08-01T07:55:49;99914.44;;;33.87;23.02
60214;BME280;46080;46.904;19.688;2022-08-01T07:58:17;99911.53;;;33.66;23.98
60214;BME280;46080;46.904;19.688;2022-08-01T08:00:43;99915.50;;;33.48;23.91
60214;BME280;46080;46.904;19.688;2022-08-01T08:03:09;99910.75;;;33.66;24.15
60214;BME280;46080;46.904;19.688;2022-08-01T08:05:35;99909.63;;;33.67;23.97
60214;BME280;46080;46.904;19.688;2022-08-01T08:08:05;99916.00;;;33.50;23.81
60214;BME280;46080;46.904;19.688;2022-08-01T08:10:32;99913.31;;;33.23;23.10
60214;BME280;46080;46.904;19.688;2022-08-01T08:12:57;99911.69;;;32.79;23.80
60214;BME280;46080;46.904;19.688;2022-08-01T08:15:23;99918.50;;;32.73;24.17
60214;BME280;46080;46.904;19.688;2022-08-01T08:17:49;99919.09;;;32.61;23.92
60214;BME280;46080;46.904;19.688;2022-08-01T08:20:15;99903.53;;;32.47;25.06
60214;BME280;46080;46.904;19.688;2022-08-01T08:22:41;99906.63;;;32.63;24.37
60214;BME280;46080;46.904;19.688;2022-08-01T08:25:08;99911.16;;;32.59;24.39
60214;BME280;46080;46.904;19.688;2022-08-01T08:27:35;99908.41;;;32.50;23.93
60214;BME280;46080;46.904;19.688;2022-08-01T08:30:01;99902.88;;;32.59;24.11
60214;BME280;46080;46.904;19.688;2022-08-01T08:32:27;99905.91;;;32.23;23.94
60214;BME280;46080;46.904;19.688;2022-08-01T08:34:53;99912.09;;;31.88;24.44
60214;BME280;46080;46.904;19.688;2022-08-01T08:37:18;99906.25;;;31.81;24.57
60214;BME280;46080;46.904;19.688;2022-08-01T08:39:44;99922.41;;;31.74;24.87
60214;BME280;46080;46.904;19.688;2022-08-01T08:42:11;99925.22;;;31.91;24.46
60214;BME280;46080;46.904;19.688;2022-08-01T08:44:40;99924.59;;;31.86;24.29
60214;BME280;46080;46.904;19.688;2022-08-01T08:47:07;99922.41;;;31.74;24.68
60214;BME280;46080;46.904;19.688;2022-08-01T08:49:33;99909.09;;;31.67;24.19
60214;BME280;46080;46.904;19.688;2022-08-01T08:52:01;99916.72;;;31.39;24.80
60214;BME280;46080;46.904;19.688;2022-08-01T08:54:28;99925.16;;;31.42;25.05
60214;BME280;46080;46.904;19.688;2022-08-01T08:56:55;99926.09;;;31.38;24.28
60214;BME280;46080;46.904;19.688;2022-08-01T08:59:21;99921.97;;;31.26;24.20
60214;BME280;46080;46.904;19.688;2022-08-01T09:01:50;99920.72;;;31.10;24.74
60214;BME280;46080;46.904;19.688;2022-08-01T09:04:16;99925.84;;;31.03;25.01
60214;BME280;46080;46.904;19.688;2022-08-01T09:06:42;99929.75;;;30.88;25.08
60214;BME280;46080;46.904;19.688;2022-08-01T09:09:09;99926.28;;;30.82;25.46
60214;BME280;46080;46.904;19.688;2022-08-01T09:11:36;99933.63;;;30.87;25.16
60214;BME280;46080;46.904;19.688;2022-08-01T09:14:09;99926.13;;;30.79;24.98
60214;BME280;46080;46.904;19.688;2022-08-01T09:16:36;99924.34;;;30.83;25.39
60214;BME280;46080;46.904;19.688;2022-08-01T09:19:19;99921.06;;;30.95;25.49
60214;BME280;46080;46.904;19.688;2022-08-01T09:21:57;99921.06;;;30.95;25.14
60214;BME280;46080;46.904;19.688;2022-08-01T09:24:28;99930.06;;;30.86;25.55
60214;BME280;46080;46.904;19.688;2022-08-01T09:26:54;99914.28;;;30.42;25.61
60214;BME280;46080;46.904;19.688;2022-08-01T09:29:25;99910.03;;;30.58;25.68
60214;BME280;46080;46.904;19.688;2022-08-01T09:31:51;99918.97;;;30.78;25.52
60214;BME280;46080;46.904;19.688;2022-08-01T09:34:25;99915.34;;;30.68;25.91
60214;BME280;46080;46.904;19.688;2022-08-01T09:36:57;99914.63;;;30.63;25.61
60214;BME280;46080;46.904;19.688;2022-08-01T09:39:26;99910.25;;;30.62;25.79
60214;BME280;46080;46.904;19.688;2022-08-01T09:41:53;99919.91;;;30.73;25.79
60214;BME280;46080;46.904;19.688;2022-08-01T09:44:19;99912.16;;;30.75;25.82
60214;BME280;46080;46.904;19.688;2022-08-01T09:47:01;99918.78;;;30.74;25.82
60214;BME280;46080;46.904;19.688;2022-08-01T09:49:32;99923.97;;;30.75;25.91
60214;BME280;46080;46.904;19.688;2022-08-01T09:52:00;99905.44;;;30.67;25.30
60214;BME280;46080;46.904;19.688;2022-08-01T09:54:34;99902.69;;;30.67;24.56
60214;BME280;46080;46.904;19.688;2022-08-01T09:57:10;99904.53;;;30.58;25.14
60214;BME280;46080;46.904;19.688;2022-08-01T09:59:37;99905.25;;;30.64;25.00
60214;BME280;46080;46.904;19.688;2022-08-01T10:02:05;99904.13;;;30.65;24.91
60214;BME280;46080;46.904;19.688;2022-08-01T10:04:31;99897.00;;;30.64;25.41
60214;BME280;46080;46.904;19.688;2022-08-01T10:07:08;99906.03;;;30.42;24.94
60214;BME280;46080;46.904;19.688;2022-08-01T10:09:35;99897.03;;;30.36;24.91
60214;BME280;46080;46.904;19.688;2022-08-01T10:12:03;99892.28;;;30.28;25.72
60214;BME280;46080;46.904;19.688;2022-08-01T10:14:30;99886.59;;;30.24;25.35
60214;BME280;46080;46.904;19.688;2022-08-01T10:16:59;99891.66;;;30.31;25.60
60214;BME280;46080;46.904;19.688;2022-08-01T10:19:27;99879.22;;;30.47;25.34
60214;BME280;46080;46.904;19.688;2022-08-01T10:21:54;99889.53;;;30.42;24.90
60214;BME280;46080;46.904;19.688;2022-08-01T10:24:21;99889.50;;;30.55;25.19
60214;BME280;46080;46.904;19.688;2022-08-01T10:26:48;99891.63;;;30.59;24.91
60214;BME280;46080;46.904;19.688;2022-08-01T10:29:18;99879.13;;;30.52;24.65
60214;BME280;46080;46.904;19.688;2022-08-01T10:31:51;99877.13;;;30.67;24.40
60214;BME280;46080;46.904;19.688;2022-08-01T10:34:17;99880.19;;;30.65;24.79
60214;BME280;46080;46.904;19.688;2022-08-01T10:36:48;99875.00;;;30.64;24.76
60214;BME280;46080;46.904;19.688;2022-08-01T10:39:14;99881.88;;;30.52;24.51
60214;BME280;46080;46.904;19.688;2022-08-01T10:41:41;99872.91;;;30.33;24.50
60214;BME280;46080;46.904;19.688;2022-08-01T10:44:09;99862.19;;;29.95;25.42
60214;BME280;46080;46.904;19.688;2022-08-01T10:46:38;99865.22;;;29.93;25.53
60214;BME280;46080;46.904;19.688;2022-08-01T10:49:11;99861.44;;;30.17;25.04
60214;BME280;46080;46.904;19.688;2022-08-01T10:51:38;99864.53;;;30.38;24.86
60214;BME280;46080;46.904;19.688;2022-08-01T10:54:09;99866.91;;;30.67;23.99
60214;BME280;46080;46.904;19.688;2022-08-01T10:56:47;99856.13;;;30.71;23.85
60214;BME280;46080;46.904;19.688;2022-08-01T10:59:24;99856.94;;;30.94;24.09
60214;BME280;46080;46.904;19.688;2022-08-01T11:02:04;99848.09;;;30.97;23.92
60214;BME280;46080;46.904;19.688;2022-08-01T11:05:12;99859.50;;;30.68;23.48
60214;BME280;46080;46.904;19.688;2022-08-01T11:07:48;99854.81;;;30.68;23.36
60214;BME280;46080;46.904;19.688;2022-08-01T11:10:42;99854.41;;;30.11;23.99
60214;BME280;46080;46.904;19.688;2022-08-01T11:13:11;99855.81;;;30.22;24.04
60214;BME280;46080;46.904;19.688;2022-08-01T11:15:38;99846.03;;;30.30;23.90
60214;BME280;46080;46.904;19.688;2022-08-01T11:20:59;99842.16;;;30.67;23.90
60214;BME280;46080;46.904;19.688;2022-08-01T11:23:28;99844.44;;;30.88;24.13
60214;BME280;46080;46.904;19.688;2022-08-01T11:28:27;99838.38;;;30.41;26.06
60214;BME280;46080;46.904;19.688;2022-08-01T11:44:01;99840.50;;;31.03;24.38
60214;BME280;46080;46.904;19.688;2022-08-01T11:46:47;99835.22;;;31.15;24.22
60214;BME280;46080;46.904;19.688;2022-08-01T11:54:34;99835.03;;;31.34;24.04
60214;BME280;46080;46.904;19.688;2022-08-01T11:57:04;99832.84;;;31.22;24.44
60214;BME280;46080;46.904;19.688;2022-08-01T11:59:36;99830.19;;;31.40;24.49
60214;BME280;46080;46.904;19.688;2022-08-01T12:02:03;99836.19;;;31.42;25.09
60214;BME280;46080;46.904;19.688;2022-08-01T12:04:48;99832.97;;;31.49;24.96
60214;BME280;46080;46.904;19.688;2022-08-01T12:07:16;99825.53;;;31.49;24.87
60214;BME280;46080;46.904;19.688;2022-08-01T12:09:42;99837.53;;;31.53;24.62
60214;BME280;46080;46.904;19.688;2022-08-01T12:12:09;99827.94;;;31.42;24.46
60214;BME280;46080;46.904;19.688;2022-08-01T12:14:35;99826.75;;;31.34;24.64
60214;BME280;46080;46.904;19.688;2022-08-01T12:17:01;99826.16;;;31.46;25.00
60214;BME280;46080;46.904;19.688;2022-08-01T12:19:27;99831.03;;;31.49;24.81
60214;BME280;46080;46.904;19.688;2022-08-01T12:22:12;99824.19;;;31.38;24.46
60214;BME280;46080;46.904;19.688;2022-08-01T12:24:39;99821.91;;;31.08;24.08
60214;BME280;46080;46.904;19.688;2022-08-01T12:27:06;99824.13;;;30.98;24.45
60214;BME280;46080;46.904;19.688;2022-08-01T12:29:37;99833.44;;;30.88;24.13
60214;BME280;46080;46.904;19.688;2022-08-01T12:32:03;99836.66;;;30.90;24.24
60214;BME280;46080;46.904;19.688;2022-08-01T12:34:30;99823.91;;;30.94;24.11
60214;BME280;46080;46.904;19.688;2022-08-01T12:36:58;99815.56;;;30.99;23.94
60214;BME280;46080;46.904;19.688;2022-08-01T12:39:32;99821.03;;;30.77;24.15
60214;BME280;46080;46.904;19.688;2022-08-01T12:41:58;99816.72;;;30.84;24.11
60214;BME280;46080;46.904;19.688;2022-08-01T12:44:26;99831.63;;;30.83;23.86
60214;BME280;46080;46.904;19.688;2022-08-01T12:46:53;99820.56;;;30.97;24.27
60214;BME280;46080;46.904;19.688;2022-08-01T12:49:19;99820.66;;;30.92;24.36
60214;BME280;46080;46.904;19.688;2022-08-01T12:51:45;99812.06;;;30.93;23.86
60214;BME280;46080;46.904;19.688;2022-08-01T12:54:11;99814.91;;;31.02;23.93
60214;BME280;46080;46.904;19.688;2022-08-01T12:56:37;99809.25;;;30.99;24.05
60214;BME280;46080;46.904;19.688;2022-08-01T12:59:19;99812.81;;;30.99;23.48
60214;BME280;46080;46.904;19.688;2022-08-01T13:01:45;99817.09;;;30.91;23.44
60214;BME280;46080;46.904;19.688;2022-08-01T13:04:12;99828.88;;;30.83;23.37
60214;BME280;46080;46.904;19.688;2022-08-01T13:06:38;99818.59;;;30.75;23.33
60214;BME280;46080;46.904;19.688;2022-08-01T13:09:10;99814.53;;;30.72;24.09
60214;BME280;46080;46.904;19.688;2022-08-01T13:11:37;99812.91;;;30.71;23.57
60214;BME280;46080;46.904;19.688;2022-08-01T13:14:03;99815.09;;;30.83;23.33
60214;BME280;46080;46.904;19.688;2022-08-01T13:16:29;99810.53;;;30.79;23.24
60214;BME280;46080;46.904;19.688;2022-08-01T13:18:56;99809.47;;;30.88;23.48
60214;BME280;46080;46.904;19.688;2022-08-01T13:21:25;99815.28;;;30.87;23.10
60214;BME280;46080;46.904;19.688;2022-08-01T13:24:06;99814.91;;;30.80;23.16
60214;BME280;46080;46.904;19.688;2022-08-01T13:29:18;99812.22;;;30.66;23.16
60214;BME280;46080;46.904;19.688;2022-08-01T13:31:46;99811.59;;;30.69;23.15
60214;BME280;46080;46.904;19.688;2022-08-01T13:34:12;99809.22;;;30.76;22.93
60214;BME280;46080;46.904;19.688;2022-08-01T13:36:39;99800.47;;;30.74;23.50